Randolph, VT

1:30 PM EDT on April 27, 2015 (GMT -0400)
Lebanon Municipal | | Change Station
CLOSE
Current Station
Airport
Location: Lebanon,
Elevation: 597 ft
Nearby Weather Stations

Elev 597 ft 43.63 °N, 72.30 °W | Updated 37 minutes ago

Overcast
Overcast
52 °F
Feels Like 52 °F
N
17
Wind Variable Wind from NW
Gusts 26 mph

Today
High -- | Low -- °F
--% Chance of Precip.
Yesterday
High -- | Low -- °F
Precip. -- in
5:48 AM 7:48 PM
Waxing Gibbous, 66% visible
Pressure 29.62 in
Visibility 10.0 miles
Clouds Mostly Cloudy 3200 ft
Overcast 4100 ft
Dew Point 35 °F
Humidity 53%
Rainfall 0.00 in
Snow Depth Not available.
UV 3 out of 12
Pollen 8.40 out of 12
Air Quality Not available.
Flu Activity Regional
METAR KLEB 271653Z 31015G23KT 10SM BKN032 OVC041 11/02 A2962 RMK AO2 SLP029 T01110017

More Conditions Fewer Conditions

Pressure 29.62 in
Visibility 10.0 miles
Clouds Mostly Cloudy 3200 ft
Overcast 4100 ft
Dew Point 35 °F
Humidity 53%
Rainfall 0.00 in
Snow Depth Not available.
UV 3 out of 12
Pollen 8.40 out of 12
Air Quality Not available.
Flu Activity Regional
METAR KLEB 271653Z 31015G23KT 10SM BKN032 OVC041 11/02 A2962 RMK AO2 SLP029 T01110017

More Conditions Fewer Conditions

10-Day Weather Forecast

Almanac

Astronomy

Apr. 27, 2015 Rise Set
Actual Time
Civil Twilight
Nautical Twilight
Astronomical Twilight
Moon
Length of Visible Light
Length of Day
Tomorrow will be .
, % of the Moon is Illuminated

Today's Extremes

State Highs State Lows

Community

WunderPhotos

Upload Photos

1,817,366 photos uploaded!

WunderBlogs® & News

Nearby

Air Quality

  Air Quality AQ Index Pollutant
Not available.

Snow Depth

Station Depth Elevation

Earthquake Activity

City Distance Mag. Time & Date
Minimum magnitude displayed is 2.5.

Coastal Water Temperatures

Place Temperature

Stations

Nearby Weather Stations

Station Location Temp. Windchill Dew Point Humidity Wind Precip. Elev Updated Type